EDW24 LSZH-MMUN
Flight info
| Callsign | EDW24 |
|---|---|
| Flight time | N/A |
| Altitude | 29000 |
| Route | VEBIT T50 ROTOS Z669 ULMES DCT VADAR DCT NINTU DCT MEBAK DCT REPSI DCT LERGA DCT MINSO DCT NARAK DCT AGN DCT PIPOR L866 PPN N976 ZMR L155 ADORO/N0480F310 DCT IBIDO DCT ERPES/M081F300 DCT LENSI/M081F320 DCT 37N030W 35N040W/M081F340 33N050W 32N060W/M081F360 DCT WINGZ DCT CATZZ DCT GALVN DCT SUMRS/N0474F360 A699 NUCAR DCT VKZ DCT EYW DCT CANOA UB879 NOSAT NOSAT1B |
| Aircraft | A343/H-SDE2E3FGHIJ4J5M1RWXY/LB1D1 |
Departure
| Time | 2026-05-06 10:44 |
|---|---|
| Airport | Zürich Airport (LSZH) |
Arrival
| Time | N/A |
|---|---|
| Airport | Cancún International Airport (MMUN) |
| Time | Latitude | Longitude | Altitude | Speed | Heading |
|---|---|---|---|---|---|
| 2026-05-06 10:27 | 47.46062 | 8.55434 | 1402 ft | 0 kts | 6° |
| 2026-05-06 10:29 | 47.46061 | 8.55434 | 1401 ft | 0 kts | 6° |
| 2026-05-06 10:32 | 47.46052 | 8.55432 | 1401 ft | 4 kts | 6° |
| 2026-05-06 10:32 | 47.46025 | 8.55428 | 1404 ft | 4 kts | 6° |
| 2026-05-06 10:32 | 47.46001 | 8.55424 | 1406 ft | 3 kts | 5° |
| 2026-05-06 10:33 | 47.45977 | 8.55427 | 1407 ft | 4 kts | 317° |
| 2026-05-06 10:33 | 47.45968 | 8.55459 | 1410 ft | 4 kts | 274° |
| 2026-05-06 10:33 | 47.45967 | 8.55481 | 1411 ft | 1 kts | 276° |
| 2026-05-06 10:33 | 47.45967 | 8.55483 | 1411 ft | 0 kts | 276° |
| 2026-05-06 10:36 | 47.45968 | 8.55461 | 1410 ft | 6 kts | 275° |
| 2026-05-06 10:36 | 47.45974 | 8.55369 | 1403 ft | 10 kts | 276° |
| 2026-05-06 10:36 | 47.45982 | 8.55274 | 1406 ft | 9 kts | 276° |
| 2026-05-06 10:37 | 47.45988 | 8.55187 | 1398 ft | 9 kts | 276° |
| 2026-05-06 10:37 | 47.45995 | 8.55078 | 1405 ft | 12 kts | 275° |
| 2026-05-06 10:37 | 47.46016 | 8.54951 | 1401 ft | 14 kts | 305° |
| 2026-05-06 10:37 | 47.46097 | 8.54887 | 1404 ft | 14 kts | 335° |
| 2026-05-06 10:38 | 47.46188 | 8.54827 | 1403 ft | 15 kts | 337° |
| 2026-05-06 10:38 | 47.46289 | 8.54757 | 1385 ft | 18 kts | 334° |
| 2026-05-06 10:38 | 47.46407 | 8.54673 | 1385 ft | 19 kts | 334° |
| 2026-05-06 10:38 | 47.46523 | 8.54590 | 1387 ft | 18 kts | 334° |
| 2026-05-06 10:39 | 47.46641 | 8.54513 | 1386 ft | 19 kts | 336° |
| 2026-05-06 10:39 | 47.46772 | 8.54428 | 1383 ft | 22 kts | 339° |
| 2026-05-06 10:39 | 47.46912 | 8.54340 | 1383 ft | 22 kts | 335° |
| 2026-05-06 10:39 | 47.47042 | 8.54251 | 1384 ft | 18 kts | 335° |
| 2026-05-06 10:40 | 47.47142 | 8.54182 | 1385 ft | 13 kts | 335° |
| 2026-05-06 10:40 | 47.47209 | 8.54135 | 1386 ft | 8 kts | 335° |
| 2026-05-06 10:40 | 47.47260 | 8.54099 | 1387 ft | 11 kts | 335° |
| 2026-05-06 10:40 | 47.47363 | 8.54028 | 1404 ft | 21 kts | 335° |
| 2026-05-06 10:41 | 47.47518 | 8.53922 | 1405 ft | 25 kts | 335° |
| 2026-05-06 10:41 | 47.47595 | 8.53847 | 1408 ft | 8 kts | 302° |
| 2026-05-06 10:41 | 47.47601 | 8.53790 | 1408 ft | 6 kts | 268° |
| 2026-05-06 10:41 | 47.47589 | 8.53702 | 1409 ft | 11 kts | 250° |
| 2026-05-06 10:42 | 47.47560 | 8.53617 | 1412 ft | 4 kts | 234° |
| 2026-05-06 10:42 | 47.47547 | 8.53618 | 1407 ft | 3 kts | 177° |
| 2026-05-06 10:42 | 47.47510 | 8.53638 | 1406 ft | 16 kts | 154° |
| 2026-05-06 10:42 | 47.47074 | 8.53936 | 1383 ft | 88 kts | 155° |
| 2026-05-06 10:43 | 47.46375 | 8.54419 | 1384 ft | 133 kts | 155° |
| 2026-05-06 10:43 | 47.45752 | 8.54845 | 1403 ft | 158 kts | 155° |
| 2026-05-06 10:43 | 47.44315 | 8.55819 | 1749 ft | 176 kts | 157° |
| 2026-05-06 10:44 | 47.42488 | 8.57273 | 2568 ft | 184 kts | 135° |
| 2026-05-06 10:44 | 47.41913 | 8.58931 | 3071 ft | 186 kts | 94° |
| 2026-05-06 10:44 | 47.42188 | 8.60809 | 3314 ft | 193 kts | 55° |
| 2026-05-06 10:44 | 47.43200 | 8.62074 | 3421 ft | 195 kts | 18° |
| 2026-05-06 10:45 | 47.44516 | 8.62573 | 3609 ft | 200 kts | 1° |
| 2026-05-06 10:45 | 47.45875 | 8.62279 | 3931 ft | 198 kts | 330° |
| 2026-05-06 10:45 | 47.46777 | 8.60808 | 4103 ft | 204 kts | 286° |
| 2026-05-06 10:45 | 47.46747 | 8.58676 | 4327 ft | 215 kts | 255° |
| 2026-05-06 10:46 | 47.46263 | 8.56574 | 4869 ft | 217 kts | 251° |
| 2026-05-06 10:46 | 47.45769 | 8.54460 | 5395 ft | 221 kts | 250° |
| 2026-05-06 10:46 | 47.45126 | 8.52291 | 5760 ft | 237 kts | 243° |
| 2026-05-06 10:46 | 47.44354 | 8.50089 | 6095 ft | 254 kts | 243° |
| 2026-05-06 10:47 | 47.43495 | 8.47711 | 6465 ft | 268 kts | 240° |
| 2026-05-06 10:47 | 47.42605 | 8.45217 | 6988 ft | 277 kts | 242° |
| 2026-05-06 10:47 | 47.41731 | 8.42658 | 7583 ft | 283 kts | 242° |
| 2026-05-06 10:47 | 47.40829 | 8.40035 | 8289 ft | 286 kts | 242° |
| 2026-05-06 10:48 | 47.39875 | 8.37473 | 8813 ft | 290 kts | 232° |
| 2026-05-06 10:48 | 47.38418 | 8.35374 | 9366 ft | 293 kts | 215° |
| 2026-05-06 10:48 | 47.36735 | 8.33690 | 9983 ft | 294 kts | 211° |
| 2026-05-06 10:48 | 47.34972 | 8.32031 | 10370 ft | 305 kts | 211° |
| 2026-05-06 10:49 | 47.33145 | 8.30331 | 10628 ft | 316 kts | 214° |
| 2026-05-06 10:49 | 47.31394 | 8.28286 | 10814 ft | 328 kts | 222° |
| 2026-05-06 10:49 | 47.29699 | 8.25968 | 11036 ft | 339 kts | 223° |
| 2026-05-06 10:49 | 47.27978 | 8.23557 | 11243 ft | 349 kts | 226° |
| 2026-05-06 10:50 | 47.26434 | 8.20747 | 11547 ft | 356 kts | 238° |
| 2026-05-06 10:50 | 47.25424 | 8.17375 | 11926 ft | 363 kts | 255° |
| 2026-05-06 10:50 | 47.25260 | 8.13645 | 12313 ft | 370 kts | 274° |
| 2026-05-06 10:50 | 47.25650 | 8.09916 | 12741 ft | 375 kts | 279° |
| 2026-05-06 10:51 | 47.26140 | 8.06105 | 13197 ft | 378 kts | 278° |
| 2026-05-06 10:51 | 47.26492 | 8.02247 | 13615 ft | 381 kts | 269° |
| 2026-05-06 10:51 | 47.26177 | 7.98421 | 14023 ft | 380 kts | 254° |
| 2026-05-06 10:51 | 47.25394 | 7.94696 | 14447 ft | 382 kts | 249° |
| 2026-05-06 10:52 | 47.24418 | 7.91022 | 14851 ft | 385 kts | 245° |
| 2026-05-06 10:52 | 47.23353 | 7.87422 | 15296 ft | 386 kts | 245° |
| 2026-05-06 10:52 | 47.22263 | 7.83784 | 15726 ft | 389 kts | 245° |
| 2026-05-06 10:52 | 47.21191 | 7.80164 | 16146 ft | 391 kts | 245° |
| 2026-05-06 10:53 | 47.20111 | 7.76454 | 16555 ft | 394 kts | 245° |
| 2026-05-06 10:53 | 47.18857 | 7.72836 | 16986 ft | 395 kts | 236° |
| 2026-05-06 10:53 | 47.17333 | 7.69521 | 17433 ft | 396 kts | 233° |
| 2026-05-06 10:53 | 47.15701 | 7.66286 | 17851 ft | 399 kts | 231° |
| 2026-05-06 10:54 | 47.13973 | 7.63036 | 18276 ft | 401 kts | 230° |
| 2026-05-06 10:54 | 47.12234 | 7.59848 | 18689 ft | 402 kts | 229° |
| 2026-05-06 10:54 | 47.10461 | 7.56621 | 19079 ft | 404 kts | 229° |
| 2026-05-06 10:54 | 47.08711 | 7.53437 | 19441 ft | 406 kts | 229° |
| 2026-05-06 10:55 | 47.06945 | 7.50213 | 19811 ft | 408 kts | 229° |
| 2026-05-06 10:55 | 47.05148 | 7.46920 | 20198 ft | 410 kts | 229° |
| 2026-05-06 10:55 | 47.03368 | 7.43649 | 20556 ft | 413 kts | 229° |
| 2026-05-06 10:55 | 47.01607 | 7.40407 | 20907 ft | 414 kts | 229° |
| 2026-05-06 10:56 | 46.99785 | 7.37064 | 21093 ft | 421 kts | 229° |
| 2026-05-06 10:56 | 46.97963 | 7.33739 | 21295 ft | 427 kts | 229° |
| 2026-05-06 10:56 | 46.96088 | 7.30329 | 21681 ft | 428 kts | 229° |
| 2026-05-06 10:56 | 46.94219 | 7.26921 | 22063 ft | 429 kts | 229° |
| 2026-05-06 10:57 | 46.92362 | 7.23532 | 22421 ft | 430 kts | 229° |
| 2026-05-06 10:57 | 46.90481 | 7.20104 | 22721 ft | 433 kts | 229° |
| 2026-05-06 10:57 | 46.88586 | 7.16656 | 23051 ft | 435 kts | 229° |
| 2026-05-06 10:57 | 46.86706 | 7.13240 | 23351 ft | 437 kts | 228° |
| 2026-05-06 10:58 | 46.84786 | 7.09755 | 23622 ft | 439 kts | 228° |
| 2026-05-06 10:58 | 46.82882 | 7.06301 | 23923 ft | 440 kts | 228° |
| 2026-05-06 10:58 | 46.80957 | 7.02813 | 24256 ft | 439 kts | 228° |
| 2026-05-06 10:58 | 46.79030 | 6.99324 | 24593 ft | 439 kts | 228° |
| 2026-05-06 10:59 | 46.77135 | 6.95899 | 24904 ft | 439 kts | 228° |
| 2026-05-06 10:59 | 46.75219 | 6.92442 | 25244 ft | 438 kts | 228° |
| 2026-05-06 10:59 | 46.73307 | 6.88997 | 25456 ft | 441 kts | 228° |
| 2026-05-06 10:59 | 46.71384 | 6.85538 | 25585 ft | 444 kts | 228° |
| 2026-05-06 11:00 | 46.69455 | 6.82070 | 25854 ft | 445 kts | 228° |
| 2026-05-06 11:00 | 46.67510 | 6.78574 | 26192 ft | 444 kts | 228° |
| 2026-05-06 11:00 | 46.65663 | 6.74953 | 26456 ft | 446 kts | 234° |
| 2026-05-06 11:00 | 46.63977 | 6.71155 | 26719 ft | 447 kts | 235° |
| 2026-05-06 11:01 | 46.62348 | 6.67347 | 26986 ft | 448 kts | 236° |
| 2026-05-06 11:01 | 46.60711 | 6.63440 | 27265 ft | 448 kts | 236° |
| 2026-05-06 11:01 | 46.59115 | 6.59597 | 27516 ft | 449 kts | 236° |
| 2026-05-06 11:01 | 46.57498 | 6.55699 | 27780 ft | 449 kts | 236° |
| 2026-05-06 11:02 | 46.55889 | 6.51833 | 28027 ft | 450 kts | 236° |
| 2026-05-06 11:02 | 46.54260 | 6.47932 | 28288 ft | 450 kts | 236° |
| 2026-05-06 11:02 | 46.52699 | 6.44209 | 28514 ft | 452 kts | 236° |
| 2026-05-06 11:03 | 46.49381 | 6.36329 | 28610 ft | 461 kts | 236° |
| 2026-05-06 11:03 | 46.47703 | 6.32351 | 28928 ft | 459 kts | 236° |
| 2026-05-06 11:03 | 46.46074 | 6.28491 | 29296 ft | 456 kts | 236° |
| 2026-05-06 11:03 | 46.44415 | 6.24565 | 29676 ft | 454 kts | 236° |
| 2026-05-06 11:04 | 46.42779 | 6.20702 | 30014 ft | 452 kts | 236° |
| 2026-05-06 11:04 | 46.41133 | 6.16821 | 30306 ft | 450 kts | 236° |
| 2026-05-06 11:04 | 46.39489 | 6.12951 | 30618 ft | 447 kts | 236° |
| 2026-05-06 11:04 | 46.37879 | 6.09166 | 30870 ft | 445 kts | 236° |
| 2026-05-06 11:05 | 46.36256 | 6.05356 | 30924 ft | 440 kts | 236° |
| 2026-05-06 11:05 | 46.33063 | 5.97875 | 30916 ft | 439 kts | 236° |
| 2026-05-06 11:06 | 46.29824 | 5.90313 | 30915 ft | 444 kts | 236° |
| 2026-05-06 11:06 | 46.26567 | 5.82726 | 30917 ft | 444 kts | 236° |
| 2026-05-06 11:07 | 46.23318 | 5.75176 | 30927 ft | 444 kts | 236° |
| 2026-05-06 11:07 | 46.20073 | 5.67656 | 30932 ft | 441 kts | 236° |
| 2026-05-06 11:08 | 46.16835 | 5.60169 | 30938 ft | 439 kts | 236° |
| 2026-05-06 11:08 | 46.13582 | 5.52706 | 30942 ft | 442 kts | 235° |
| 2026-05-06 11:09 | 46.10100 | 5.45390 | 30936 ft | 445 kts | 233° |
| 2026-05-06 11:09 | 46.06525 | 5.38115 | 30932 ft | 445 kts | 233° |
| 2026-05-06 11:10 | 46.02969 | 5.30817 | 30934 ft | 444 kts | 233° |
| 2026-05-06 11:10 | 45.99459 | 5.23562 | 30935 ft | 442 kts | 233° |
| 2026-05-06 11:11 | 45.95957 | 5.16323 | 30934 ft | 441 kts | 233° |
| 2026-05-06 11:11 | 45.92424 | 5.09040 | 30944 ft | 445 kts | 233° |
| 2026-05-06 11:12 | 45.88865 | 5.01725 | 30939 ft | 448 kts | 233° |
| 2026-05-06 11:12 | 45.85295 | 4.94405 | 30930 ft | 448 kts | 233° |
| 2026-05-06 11:13 | 45.81750 | 4.87156 | 30941 ft | 444 kts | 233° |
| 2026-05-06 11:13 | 45.78216 | 4.79949 | 30939 ft | 443 kts | 233° |
| 2026-05-06 11:14 | 45.74676 | 4.72749 | 30936 ft | 443 kts | 233° |
| 2026-05-06 11:14 | 45.71112 | 4.65519 | 30922 ft | 448 kts | 233° |
| 2026-05-06 11:15 | 45.67496 | 4.58197 | 30927 ft | 451 kts | 233° |
| 2026-05-06 11:15 | 45.63896 | 4.50926 | 30933 ft | 448 kts | 233° |
| 2026-05-06 11:16 | 45.60280 | 4.43642 | 30939 ft | 447 kts | 233° |
| 2026-05-06 11:16 | 45.56678 | 4.36404 | 30940 ft | 448 kts | 233° |
| 2026-05-06 11:17 | 45.53066 | 4.29165 | 30938 ft | 448 kts | 233° |
| 2026-05-06 11:17 | 45.49454 | 4.21938 | 30938 ft | 452 kts | 234° |
| 2026-05-06 11:18 | 45.45788 | 4.14641 | 30930 ft | 451 kts | 233° |
| 2026-05-06 11:18 | 45.42136 | 4.07392 | 30928 ft | 451 kts | 233° |
| 2026-05-06 11:19 | 45.38468 | 4.00126 | 30925 ft | 451 kts | 233° |
| 2026-05-06 11:19 | 45.34818 | 3.92911 | 30917 ft | 451 kts | 233° |
| 2026-05-06 11:20 | 45.31137 | 3.85654 | 30916 ft | 451 kts | 234° |
| 2026-05-06 11:20 | 45.27491 | 3.78484 | 30915 ft | 450 kts | 234° |
| 2026-05-06 11:21 | 45.23834 | 3.71277 | 30918 ft | 450 kts | 234° |
| 2026-05-06 11:21 | 45.20247 | 3.63976 | 30915 ft | 450 kts | 235° |
| 2026-05-06 11:22 | 45.16693 | 3.56708 | 30924 ft | 450 kts | 235° |
| 2026-05-06 11:22 | 45.13118 | 3.49454 | 30913 ft | 450 kts | 235° |
| 2026-05-06 11:23 | 45.09556 | 3.42267 | 30917 ft | 446 kts | 235° |
| 2026-05-06 11:23 | 45.05991 | 3.35101 | 30918 ft | 445 kts | 235° |
| 2026-05-06 11:24 | 45.02420 | 3.27938 | 30921 ft | 445 kts | 235° |
| 2026-05-06 11:24 | 44.98855 | 3.20805 | 30924 ft | 445 kts | 235° |
| 2026-05-06 11:25 | 44.95286 | 3.13681 | 30917 ft | 445 kts | 235° |
| 2026-05-06 11:25 | 44.91710 | 3.06560 | 30926 ft | 444 kts | 235° |
| 2026-05-06 11:26 | 44.88152 | 2.99494 | 30931 ft | 444 kts | 235° |
| 2026-05-06 11:26 | 44.84570 | 2.92396 | 30932 ft | 445 kts | 235° |
| 2026-05-06 11:27 | 44.81119 | 2.85134 | 30942 ft | 445 kts | 238° |
| 2026-05-06 11:27 | 44.77820 | 2.77813 | 30941 ft | 445 kts | 238° |
| 2026-05-06 11:28 | 44.74482 | 2.70474 | 30941 ft | 445 kts | 237° |
| 2026-05-06 11:28 | 44.71120 | 2.63185 | 30946 ft | 446 kts | 237° |
| 2026-05-06 11:29 | 44.67715 | 2.55858 | 30940 ft | 448 kts | 237° |
| 2026-05-06 11:29 | 44.64296 | 2.48520 | 30960 ft | 448 kts | 237° |
| 2026-05-06 11:30 | 44.60877 | 2.41199 | 30958 ft | 448 kts | 237° |
| 2026-05-06 11:30 | 44.57467 | 2.33912 | 30957 ft | 447 kts | 237° |
| 2026-05-06 11:31 | 44.54071 | 2.26674 | 30965 ft | 443 kts | 237° |
| 2026-05-06 11:31 | 44.50656 | 2.19412 | 30962 ft | 449 kts | 237° |
| 2026-05-06 11:32 | 44.47225 | 2.12136 | 30959 ft | 449 kts | 237° |
| 2026-05-06 11:32 | 44.43777 | 2.04843 | 30958 ft | 449 kts | 237° |
| 2026-05-06 11:33 | 44.40319 | 1.97548 | 30934 ft | 449 kts | 237° |
| 2026-05-06 11:33 | 44.36888 | 1.90327 | 30953 ft | 444 kts | 237° |
| 2026-05-06 11:34 | 44.33442 | 1.83092 | 30957 ft | 448 kts | 237° |
| 2026-05-06 11:34 | 44.29998 | 1.75877 | 30955 ft | 450 kts | 237° |
| 2026-05-06 11:35 | 44.26554 | 1.68541 | 30957 ft | 449 kts | 238° |
| 2026-05-06 11:35 | 44.23207 | 1.61197 | 30955 ft | 449 kts | 238° |
| 2026-05-06 11:36 | 44.19850 | 1.53849 | 30955 ft | 448 kts | 238° |
| 2026-05-06 11:36 | 44.16509 | 1.46595 | 30955 ft | 449 kts | 238° |
| 2026-05-06 11:37 | 44.13106 | 1.39246 | 30957 ft | 451 kts | 238° |
| 2026-05-06 11:37 | 44.09712 | 1.31936 | 30956 ft | 451 kts | 238° |
| 2026-05-06 11:38 | 44.06307 | 1.24621 | 30955 ft | 451 kts | 238° |
| 2026-05-06 11:38 | 44.02897 | 1.17311 | 30951 ft | 451 kts | 238° |
| 2026-05-06 11:39 | 43.99485 | 1.10015 | 30951 ft | 449 kts | 238° |
| 2026-05-06 11:39 | 43.96064 | 1.02719 | 30954 ft | 450 kts | 238° |
| 2026-05-06 11:40 | 43.92650 | 0.95455 | 30954 ft | 450 kts | 238° |
| 2026-05-06 11:40 | 43.89228 | 0.88193 | 30953 ft | 450 kts | 238° |
| 2026-05-06 11:41 | 43.85908 | 0.80852 | 30955 ft | 450 kts | 240° |
| 2026-05-06 11:41 | 43.82753 | 0.73384 | 30945 ft | 451 kts | 241° |
| 2026-05-06 11:42 | 43.79579 | 0.65886 | 30950 ft | 451 kts | 240° |
| 2026-05-06 11:42 | 43.76388 | 0.58467 | 30965 ft | 450 kts | 240° |
| 2026-05-06 11:43 | 43.73179 | 0.51065 | 30954 ft | 450 kts | 240° |
| 2026-05-06 11:43 | 43.69960 | 0.43667 | 30975 ft | 450 kts | 240° |
| 2026-05-06 11:44 | 43.65118 | 0.32567 | 30973 ft | 452 kts | 240° |
| 2026-05-06 11:44 | 43.61844 | 0.25082 | 30971 ft | 453 kts | 240° |
| 2026-05-06 11:45 | 43.58611 | 0.17709 | 30979 ft | 451 kts | 240° |
| 2026-05-06 11:45 | 43.55358 | 0.10312 | 30980 ft | 451 kts | 240° |
| 2026-05-06 11:46 | 43.52105 | 0.02933 | 30983 ft | 450 kts | 240° |
| 2026-05-06 11:46 | 43.48848 | -0.04438 | 30984 ft | 452 kts | 240° |
| 2026-05-06 11:47 | 43.45558 | -0.11868 | 30990 ft | 456 kts | 240° |
| 2026-05-06 11:47 | 43.42265 | -0.19280 | 30981 ft | 455 kts | 240° |
| 2026-05-06 11:48 | 43.38956 | -0.26708 | 30992 ft | 455 kts | 240° |
| 2026-05-06 11:48 | 43.35651 | -0.34110 | 30995 ft | 455 kts | 240° |
| 2026-05-06 11:49 | 43.32347 | -0.41490 | 30994 ft | 455 kts | 240° |
| 2026-05-06 11:49 | 43.29028 | -0.48887 | 30995 ft | 455 kts | 240° |
| 2026-05-06 11:50 | 43.25709 | -0.56266 | 30992 ft | 455 kts | 240° |
| 2026-05-06 11:50 | 43.22373 | -0.63665 | 30981 ft | 455 kts | 240° |
| 2026-05-06 11:51 | 43.19606 | -0.69789 | 30996 ft | 453 kts | 239° |
| 2026-05-06 11:51 | 43.16286 | -0.77115 | 31001 ft | 452 kts | 239° |
| 2026-05-06 11:52 | 43.12402 | -0.85663 | 31002 ft | 458 kts | 240° |
| 2026-05-06 11:52 | 43.09590 | -0.91839 | 31008 ft | 458 kts | 239° |
| 2026-05-06 11:53 | 43.06225 | -0.99209 | 31004 ft | 458 kts | 239° |
| 2026-05-06 11:53 | 43.02845 | -1.06594 | 31009 ft | 458 kts | 239° |
| 2026-05-06 11:54 | 42.99468 | -1.13956 | 31010 ft | 453 kts | 239° |
| 2026-05-06 11:54 | 42.96139 | -1.21192 | 31013 ft | 452 kts | 239° |
| 2026-05-06 11:55 | 42.92787 | -1.28458 | 31019 ft | 455 kts | 239° |
| 2026-05-06 11:55 | 42.89397 | -1.35790 | 31018 ft | 455 kts | 239° |
| 2026-05-06 11:56 | 42.86026 | -1.43062 | 31022 ft | 455 kts | 239° |
| 2026-05-06 11:56 | 42.82646 | -1.50336 | 31020 ft | 454 kts | 239° |
| 2026-05-06 11:57 | 42.79267 | -1.57589 | 31021 ft | 457 kts | 239° |
| 2026-05-06 11:57 | 42.75852 | -1.64905 | 31021 ft | 460 kts | 239° |
| 2026-05-06 11:58 | 42.72935 | -1.72625 | 31023 ft | 457 kts | 251° |
| 2026-05-06 11:58 | 42.70939 | -1.80780 | 31021 ft | 457 kts | 254° |
| 2026-05-06 11:59 | 42.69088 | -1.89058 | 31024 ft | 457 kts | 255° |
| 2026-05-06 11:59 | 42.67250 | -1.97325 | 31017 ft | 458 kts | 254° |
| 2026-05-06 12:00 | 42.65383 | -2.05600 | 31023 ft | 459 kts | 254° |
| 2026-05-06 12:00 | 42.63501 | -2.13851 | 31027 ft | 459 kts | 254° |
| 2026-05-06 12:01 | 42.61565 | -2.22132 | 31021 ft | 459 kts | 253° |
| 2026-05-06 12:01 | 42.59555 | -2.30343 | 31010 ft | 459 kts | 253° |
| 2026-05-06 12:02 | 42.57537 | -2.38556 | 31019 ft | 459 kts | 253° |
| 2026-05-06 12:02 | 42.55538 | -2.46710 | 31018 ft | 456 kts | 253° |
| 2026-05-06 12:03 | 42.53530 | -2.54904 | 31017 ft | 457 kts | 253° |
| 2026-05-06 12:03 | 42.51522 | -2.63073 | 31016 ft | 457 kts | 253° |
| 2026-05-06 12:04 | 42.49518 | -2.71194 | 31012 ft | 458 kts | 253° |
| 2026-05-06 12:04 | 42.47492 | -2.79377 | 31015 ft | 459 kts | 253° |
| 2026-05-06 12:05 | 42.45417 | -2.87515 | 31011 ft | 459 kts | 249° |
| 2026-05-06 12:05 | 42.42852 | -2.95432 | 31015 ft | 460 kts | 247° |
| 2026-05-06 12:06 | 42.40177 | -3.03305 | 31007 ft | 460 kts | 247° |
| 2026-05-06 12:06 | 42.37489 | -3.11133 | 31015 ft | 458 kts | 247° |
| 2026-05-06 12:07 | 42.34807 | -3.18947 | 31006 ft | 453 kts | 247° |
| 2026-05-06 12:07 | 42.32184 | -3.26579 | 31010 ft | 446 kts | 247° |
| 2026-05-06 12:08 | 42.29576 | -3.34161 | 31010 ft | 446 kts | 247° |
| 2026-05-06 12:08 | 42.26961 | -3.41743 | 31015 ft | 447 kts | 247° |
| 2026-05-06 12:09 | 42.24330 | -3.49350 | 31016 ft | 448 kts | 247° |
| 2026-05-06 12:09 | 42.21684 | -3.56975 | 31016 ft | 448 kts | 247° |
| 2026-05-06 12:10 | 42.19039 | -3.64578 | 31014 ft | 448 kts | 247° |
| 2026-05-06 12:10 | 42.16401 | -3.72137 | 31001 ft | 448 kts | 247° |
| 2026-05-06 12:11 | 42.13749 | -3.79719 | 31001 ft | 448 kts | 247° |
| 2026-05-06 12:11 | 42.11091 | -3.87296 | 31001 ft | 447 kts | 247° |
| 2026-05-06 12:12 | 42.08421 | -3.94887 | 31002 ft | 448 kts | 246° |
| 2026-05-06 12:12 | 42.05748 | -4.02467 | 31003 ft | 448 kts | 246° |
| 2026-05-06 12:13 | 42.03069 | -4.10041 | 31003 ft | 448 kts | 246° |
| 2026-05-06 12:13 | 42.00507 | -4.17655 | 31003 ft | 447 kts | 249° |
| 2026-05-06 12:14 | 41.98121 | -4.25352 | 31004 ft | 447 kts | 249° |
| 2026-05-06 12:14 | 41.95771 | -4.32906 | 31001 ft | 447 kts | 249° |
| 2026-05-06 12:15 | 41.93347 | -4.40560 | 31004 ft | 447 kts | 249° |
| 2026-05-06 12:15 | 41.90897 | -4.48221 | 31003 ft | 447 kts | 249° |
| 2026-05-06 12:16 | 41.88432 | -4.55899 | 31005 ft | 446 kts | 249° |
| 2026-05-06 12:16 | 41.85970 | -4.63546 | 31005 ft | 447 kts | 248° |
| 2026-05-06 12:17 | 41.83507 | -4.71184 | 31016 ft | 447 kts | 248° |
| 2026-05-06 12:17 | 41.81039 | -4.78813 | 31018 ft | 447 kts | 248° |
| 2026-05-06 12:18 | 41.78564 | -4.86442 | 31021 ft | 447 kts | 248° |
| 2026-05-06 12:18 | 41.76077 | -4.94089 | 31021 ft | 447 kts | 248° |
| 2026-05-06 12:19 | 41.73596 | -5.01695 | 31018 ft | 448 kts | 248° |
| 2026-05-06 12:19 | 41.71096 | -5.09338 | 31014 ft | 449 kts | 248° |
| 2026-05-06 12:20 | 41.68572 | -5.17030 | 31009 ft | 449 kts | 248° |
| 2026-05-06 12:20 | 41.66067 | -5.24643 | 31005 ft | 449 kts | 248° |
| 2026-05-06 12:21 | 41.63554 | -5.32263 | 30998 ft | 448 kts | 248° |
| 2026-05-06 12:21 | 41.61021 | -5.39920 | 30999 ft | 448 kts | 247° |
| 2026-05-06 12:22 | 41.58500 | -5.47517 | 30998 ft | 449 kts | 247° |
| 2026-05-06 12:22 | 41.55967 | -5.55133 | 30996 ft | 449 kts | 247° |
| 2026-05-06 12:23 | 41.53617 | -5.62817 | 30995 ft | 447 kts | 254° |
| 2026-05-06 12:23 | 41.52506 | -5.70946 | 30997 ft | 446 kts | 263° |
| 2026-05-06 12:24 | 41.51867 | -5.79232 | 30993 ft | 448 kts | 265° |
| 2026-05-06 12:24 | 41.51306 | -5.87479 | 30993 ft | 448 kts | 265° |
| 2026-05-06 12:25 | 41.50724 | -5.95754 | 30994 ft | 448 kts | 264° |
| 2026-05-06 12:25 | 41.50119 | -6.04013 | 30993 ft | 448 kts | 264° |
| 2026-05-06 12:26 | 41.49499 | -6.12307 | 30992 ft | 449 kts | 264° |
| 2026-05-06 12:26 | 41.48874 | -6.20581 | 30990 ft | 449 kts | 264° |
| 2026-05-06 12:27 | 41.48240 | -6.28900 | 30990 ft | 449 kts | 264° |
| 2026-05-06 12:27 | 41.47267 | -6.37137 | 30991 ft | 450 kts | 259° |
| 2026-05-06 12:28 | 41.46048 | -6.45286 | 30988 ft | 450 kts | 259° |
| 2026-05-06 12:28 | 41.44849 | -6.53485 | 30982 ft | 450 kts | 259° |
| 2026-05-06 12:29 | 41.43703 | -6.61669 | 30983 ft | 450 kts | 260° |
| 2026-05-06 12:29 | 41.42568 | -6.69886 | 30987 ft | 450 kts | 260° |
| 2026-05-06 12:30 | 41.41434 | -6.78062 | 30983 ft | 450 kts | 260° |
| 2026-05-06 12:30 | 41.40284 | -6.86294 | 30992 ft | 450 kts | 259° |
| 2026-05-06 12:31 | 41.39135 | -6.94455 | 30982 ft | 450 kts | 259° |
| 2026-05-06 12:31 | 41.37975 | -7.02656 | 30987 ft | 451 kts | 259° |
| 2026-05-06 12:32 | 41.36809 | -7.10853 | 30986 ft | 451 kts | 259° |
| 2026-05-06 12:32 | 41.35633 | -7.19075 | 30996 ft | 451 kts | 259° |
| 2026-05-06 12:33 | 41.34453 | -7.27285 | 30987 ft | 450 kts | 259° |
| 2026-05-06 12:33 | 41.33274 | -7.35437 | 31000 ft | 450 kts | 259° |
| 2026-05-06 12:34 | 41.32086 | -7.43618 | 30988 ft | 450 kts | 259° |
| 2026-05-06 12:34 | 41.30895 | -7.51771 | 30990 ft | 450 kts | 259° |
| 2026-05-06 12:35 | 41.29690 | -7.59978 | 30995 ft | 450 kts | 259° |
| 2026-05-06 12:35 | 41.28484 | -7.68150 | 30995 ft | 451 kts | 258° |
| 2026-05-06 12:36 | 41.27275 | -7.76301 | 30994 ft | 451 kts | 258° |
| 2026-05-06 12:36 | 41.26059 | -7.84455 | 30992 ft | 451 kts | 258° |
| 2026-05-06 12:37 | 41.24831 | -7.92652 | 31000 ft | 451 kts | 258° |
| 2026-05-06 12:37 | 41.23602 | -8.00812 | 30995 ft | 451 kts | 258° |
| 2026-05-06 12:38 | 41.22367 | -8.08969 | 30998 ft | 451 kts | 258° |
| 2026-05-06 12:38 | 41.21126 | -8.17126 | 30999 ft | 451 kts | 258° |
| 2026-05-06 12:39 | 41.19883 | -8.25254 | 30997 ft | 451 kts | 258° |
| 2026-05-06 12:39 | 41.18633 | -8.33390 | 30998 ft | 451 kts | 258° |
| 2026-05-06 12:40 | 41.17375 | -8.41536 | 31004 ft | 451 kts | 258° |
| 2026-05-06 12:40 | 41.16104 | -8.49723 | 31019 ft | 451 kts | 258° |
| 2026-05-06 12:41 | 41.14831 | -8.57886 | 31021 ft | 451 kts | 258° |
| 2026-05-06 12:41 | 41.13556 | -8.66018 | 31025 ft | 451 kts | 258° |
| 2026-05-06 12:42 | 41.12273 | -8.74168 | 31025 ft | 451 kts | 257° |
| 2026-05-06 12:42 | 41.10988 | -8.82289 | 31015 ft | 451 kts | 257° |
| 2026-05-06 12:43 | 41.09694 | -8.90427 | 31026 ft | 451 kts | 257° |
| 2026-05-06 12:43 | 41.08396 | -8.98550 | 31020 ft | 451 kts | 257° |
| 2026-05-06 12:44 | 41.07093 | -9.06665 | 31028 ft | 451 kts | 257° |
| 2026-05-06 12:44 | 41.05994 | -9.13481 | 31045 ft | 451 kts | 257° |
| 2026-05-06 12:45 | 41.04681 | -9.21585 | 31030 ft | 451 kts | 257° |
| 2026-05-06 12:46 | 41.02700 | -9.33749 | 31032 ft | 451 kts | 257° |
| 2026-05-06 12:46 | 41.01371 | -9.41856 | 31039 ft | 451 kts | 257° |
| 2026-05-06 12:47 | 41.00031 | -9.49996 | 31042 ft | 451 kts | 256° |
| 2026-05-06 12:47 | 40.98700 | -9.58044 | 31045 ft | 450 kts | 256° |
| 2026-05-06 12:48 | 40.97353 | -9.66147 | 31045 ft | 450 kts | 256° |
| 2026-05-06 12:48 | 40.96000 | -9.74255 | 31047 ft | 450 kts | 256° |
| 2026-05-06 12:49 | 40.94641 | -9.82353 | 31048 ft | 450 kts | 256° |
| 2026-05-06 12:49 | 40.93282 | -9.90418 | 31053 ft | 450 kts | 256° |
| 2026-05-06 12:50 | 40.91923 | -9.98448 | 31057 ft | 450 kts | 256° |
| 2026-05-06 12:50 | 40.90543 | -10.06569 | 31058 ft | 450 kts | 256° |
| 2026-05-06 12:51 | 40.89167 | -10.14624 | 31055 ft | 449 kts | 256° |
| 2026-05-06 12:51 | 40.87802 | -10.22657 | 31057 ft | 449 kts | 257° |
| 2026-05-06 12:52 | 40.86504 | -10.30705 | 31064 ft | 449 kts | 257° |
| 2026-05-06 12:52 | 40.85210 | -10.38791 | 31061 ft | 449 kts | 257° |
| 2026-05-06 12:53 | 40.83905 | -10.46849 | 31064 ft | 449 kts | 257° |
| 2026-05-06 12:53 | 40.82584 | -10.54916 | 31066 ft | 449 kts | 257° |
| 2026-05-06 12:54 | 40.81258 | -10.62966 | 31073 ft | 450 kts | 257° |
| 2026-05-06 12:54 | 40.79920 | -10.71057 | 31069 ft | 450 kts | 257° |
| 2026-05-06 12:55 | 40.78582 | -10.79105 | 31067 ft | 450 kts | 257° |
| 2026-05-06 12:55 | 40.77233 | -10.87190 | 31075 ft | 450 kts | 257° |
| 2026-05-06 12:56 | 40.75885 | -10.95229 | 31074 ft | 450 kts | 257° |
| 2026-05-06 12:56 | 40.74529 | -11.03283 | 31076 ft | 450 kts | 257° |
| 2026-05-06 12:57 | 40.73170 | -11.11313 | 31076 ft | 450 kts | 257° |
| 2026-05-06 12:57 | 40.71794 | -11.19408 | 31078 ft | 450 kts | 257° |
| 2026-05-06 12:58 | 40.70422 | -11.27448 | 31075 ft | 450 kts | 257° |
| 2026-05-06 12:58 | 40.69043 | -11.35487 | 31082 ft | 450 kts | 257° |
| 2026-05-06 12:59 | 40.67656 | -11.43537 | 31081 ft | 451 kts | 257° |
| 2026-05-06 12:59 | 40.66266 | -11.51570 | 31081 ft | 451 kts | 257° |
| 2026-05-06 13:00 | 40.64868 | -11.59618 | 31081 ft | 451 kts | 257° |
| 2026-05-06 13:00 | 40.63466 | -11.67652 | 31087 ft | 451 kts | 257° |
| 2026-05-06 13:01 | 40.62061 | -11.75664 | 31090 ft | 451 kts | 257° |
| 2026-05-06 13:01 | 40.60650 | -11.83677 | 31089 ft | 451 kts | 257° |
| 2026-05-06 13:02 | 40.59230 | -11.91707 | 31462 ft | 447 kts | 257° |
| 2026-05-06 13:02 | 40.58524 | -11.95683 | 31716 ft | 445 kts | 257° |
| 2026-05-06 13:02 | 40.57823 | -11.99628 | 31933 ft | 444 kts | 257° |
| 2026-05-06 13:02 | 40.57123 | -12.03557 | 32076 ft | 445 kts | 257° |
| 2026-05-06 13:03 | 40.56412 | -12.07534 | 32094 ft | 447 kts | 257° |
| 2026-05-06 13:03 | 40.54986 | -12.15493 | 32091 ft | 445 kts | 257° |
| 2026-05-06 13:04 | 40.53567 | -12.23383 | 32092 ft | 445 kts | 257° |
| 2026-05-06 13:04 | 40.52128 | -12.31348 | 32094 ft | 445 kts | 257° |
| 2026-05-06 13:05 | 40.50702 | -12.39213 | 32097 ft | 445 kts | 257° |
| 2026-05-06 13:05 | 40.49259 | -12.47132 | 32097 ft | 446 kts | 257° |
| 2026-05-06 13:06 | 40.47805 | -12.55079 | 32100 ft | 447 kts | 257° |
| 2026-05-06 13:06 | 40.46351 | -12.62998 | 32099 ft | 447 kts | 257° |
| 2026-05-06 13:07 | 40.44886 | -12.70939 | 32103 ft | 447 kts | 257° |
| 2026-05-06 13:07 | 40.43421 | -12.78846 | 32101 ft | 447 kts | 258° |
| 2026-05-06 13:08 | 40.41950 | -12.86753 | 32102 ft | 448 kts | 258° |
| 2026-05-06 13:08 | 40.40463 | -12.94722 | 32105 ft | 448 kts | 258° |
| 2026-05-06 13:09 | 40.38977 | -13.02644 | 32107 ft | 447 kts | 258° |
| 2026-05-06 13:09 | 40.37481 | -13.10590 | 32107 ft | 446 kts | 258° |
| 2026-05-06 13:10 | 40.35989 | -13.18481 | 32110 ft | 447 kts | 259° |
| 2026-05-06 13:10 | 40.34474 | -13.26373 | 32113 ft | 447 kts | 259° |
| 2026-05-06 13:11 | 40.32974 | -13.34272 | 32110 ft | 447 kts | 259° |
| 2026-05-06 13:11 | 40.31468 | -13.42192 | 32113 ft | 448 kts | 259° |
| 2026-05-06 13:12 | 40.29952 | -13.50097 | 32099 ft | 448 kts | 259° |
| 2026-05-06 13:12 | 40.28428 | -13.58000 | 32114 ft | 450 kts | 260° |
| 2026-05-06 13:13 | 40.26882 | -13.65984 | 32115 ft | 451 kts | 260° |
| 2026-05-06 13:13 | 40.25340 | -13.73915 | 32115 ft | 450 kts | 260° |
| 2026-05-06 13:14 | 40.23788 | -13.81861 | 32121 ft | 451 kts | 260° |
| 2026-05-06 13:14 | 40.22236 | -13.89789 | 32119 ft | 451 kts | 261° |
| 2026-05-06 13:15 | 40.20666 | -13.97771 | 32120 ft | 452 kts | 261° |
| 2026-05-06 13:15 | 40.19094 | -14.05724 | 32120 ft | 452 kts | 261° |
| 2026-05-06 13:16 | 40.17512 | -14.13700 | 32121 ft | 452 kts | 261° |
| 2026-05-06 13:16 | 40.15931 | -14.21643 | 32093 ft | 452 kts | 261° |
| 2026-05-06 13:17 | 40.14345 | -14.29579 | 32125 ft | 453 kts | 262° |
| 2026-05-06 13:17 | 40.12752 | -14.37519 | 32126 ft | 453 kts | 262° |
| 2026-05-06 13:18 | 40.11142 | -14.45509 | 32127 ft | 453 kts | 262° |
| 2026-05-06 13:18 | 40.09544 | -14.53413 | 32132 ft | 453 kts | 262° |
| 2026-05-06 13:19 | 40.07925 | -14.61387 | 32128 ft | 453 kts | 263° |
| 2026-05-06 13:19 | 40.06311 | -14.69308 | 32135 ft | 452 kts | 263° |
| 2026-05-06 13:20 | 40.04692 | -14.77227 | 32135 ft | 452 kts | 263° |
| 2026-05-06 13:20 | 40.03056 | -14.85196 | 32135 ft | 452 kts | 263° |
| 2026-05-06 13:21 | 40.01426 | -14.93106 | 32138 ft | 452 kts | 263° |
| 2026-05-06 13:21 | 39.99787 | -15.01033 | 32138 ft | 452 kts | 263° |
| 2026-05-06 13:22 | 39.98326 | -15.08941 | 32137 ft | 449 kts | 265° |
| 2026-05-06 13:22 | 39.96973 | -15.16888 | 32138 ft | 449 kts | 265° |
| 2026-05-06 13:23 | 39.95596 | -15.24843 | 32139 ft | 450 kts | 264° |
| 2026-05-06 13:23 | 39.94179 | -15.32833 | 32141 ft | 450 kts | 264° |
| 2026-05-06 13:24 | 39.92760 | -15.40735 | 32149 ft | 450 kts | 264° |
| 2026-05-06 13:24 | 39.91326 | -15.48684 | 32148 ft | 450 kts | 264° |
| 2026-05-06 13:25 | 39.89892 | -15.56604 | 32152 ft | 450 kts | 264° |
| 2026-05-06 13:25 | 39.88451 | -15.64540 | 32120 ft | 450 kts | 264° |
| 2026-05-06 13:26 | 39.87007 | -15.72454 | 32148 ft | 450 kts | 264° |
| 2026-05-06 13:26 | 39.85551 | -15.80404 | 32157 ft | 450 kts | 264° |
| 2026-05-06 13:27 | 39.84097 | -15.88313 | 32154 ft | 450 kts | 264° |
| 2026-05-06 13:27 | 39.82635 | -15.96226 | 32161 ft | 450 kts | 264° |
| 2026-05-06 13:28 | 39.81166 | -16.04146 | 32158 ft | 450 kts | 264° |
| 2026-05-06 13:28 | 39.79686 | -16.12092 | 32157 ft | 450 kts | 264° |
| 2026-05-06 13:29 | 39.78209 | -16.19993 | 32158 ft | 450 kts | 264° |
| 2026-05-06 13:29 | 39.76729 | -16.27880 | 32161 ft | 450 kts | 264° |
| 2026-05-06 13:30 | 39.75493 | -16.34441 | 32163 ft | 450 kts | 264° |
| 2026-05-06 13:30 | 39.73995 | -16.42356 | 32164 ft | 449 kts | 264° |
| 2026-05-06 13:31 | 39.72508 | -16.50189 | 32171 ft | 449 kts | 264° |
| 2026-05-06 13:31 | 39.71000 | -16.58105 | 32167 ft | 449 kts | 264° |
| 2026-05-06 13:32 | 39.69497 | -16.65961 | 32168 ft | 450 kts | 264° |
| 2026-05-06 13:32 | 39.67985 | -16.73828 | 32173 ft | 449 kts | 265° |
| 2026-05-06 13:33 | 39.66470 | -16.81679 | 32173 ft | 449 kts | 265° |
| 2026-05-06 13:33 | 39.64952 | -16.89517 | 32170 ft | 449 kts | 265° |
| 2026-05-06 13:34 | 39.63425 | -16.97373 | 32171 ft | 449 kts | 265° |
| 2026-05-06 13:34 | 39.61889 | -17.05240 | 32141 ft | 449 kts | 265° |
| 2026-05-06 13:35 | 39.60355 | -17.13073 | 32177 ft | 448 kts | 265° |
| 2026-05-06 13:35 | 39.58816 | -17.20895 | 32181 ft | 448 kts | 265° |
| 2026-05-06 13:36 | 39.57274 | -17.28700 | 32181 ft | 448 kts | 265° |
| 2026-05-06 13:36 | 39.55722 | -17.36534 | 32181 ft | 448 kts | 265° |
| 2026-05-06 13:37 | 39.54168 | -17.44346 | 32181 ft | 449 kts | 265° |
| 2026-05-06 13:37 | 39.52596 | -17.52219 | 32184 ft | 449 kts | 265° |
| 2026-05-06 13:38 | 39.51029 | -17.60032 | 32184 ft | 449 kts | 264° |
| 2026-05-06 13:38 | 39.49454 | -17.67856 | 32189 ft | 449 kts | 264° |
| 2026-05-06 13:39 | 39.47874 | -17.75675 | 32161 ft | 449 kts | 264° |
| 2026-05-06 13:39 | 39.46295 | -17.83462 | 32189 ft | 449 kts | 264° |
| 2026-05-06 13:40 | 39.44705 | -17.91272 | 32184 ft | 449 kts | 264° |
| 2026-05-06 13:40 | 39.43111 | -17.99072 | 32190 ft | 448 kts | 264° |
| 2026-05-06 13:41 | 39.41512 | -18.06871 | 32191 ft | 449 kts | 264° |
| 2026-05-06 13:41 | 39.39910 | -18.14649 | 32187 ft | 447 kts | 264° |
| 2026-05-06 13:42 | 39.38311 | -18.22383 | 32191 ft | 446 kts | 264° |
| 2026-05-06 13:42 | 39.36710 | -18.30108 | 32209 ft | 446 kts | 264° |
| 2026-05-06 13:43 | 39.35096 | -18.37873 | 32194 ft | 446 kts | 264° |
| 2026-05-06 13:43 | 39.33483 | -18.45599 | 32188 ft | 446 kts | 263° |
| 2026-05-06 13:44 | 39.31865 | -18.53309 | 32192 ft | 444 kts | 263° |
| 2026-05-06 13:44 | 39.30253 | -18.60968 | 32196 ft | 444 kts | 263° |
| 2026-05-06 13:45 | 39.28630 | -18.68660 | 32200 ft | 444 kts | 263° |
| 2026-05-06 13:45 | 39.26194 | -18.80152 | 32196 ft | 444 kts | 263° |
| 2026-05-06 13:46 | 39.24559 | -18.87825 | 32197 ft | 444 kts | 263° |
| 2026-05-06 13:46 | 39.22914 | -18.95520 | 32204 ft | 444 kts | 263° |
| 2026-05-06 13:47 | 39.21272 | -19.03178 | 32206 ft | 444 kts | 263° |
| 2026-05-06 13:47 | 39.19623 | -19.10837 | 32202 ft | 444 kts | 263° |
| 2026-05-06 13:48 | 39.17959 | -19.18536 | 32200 ft | 442 kts | 263° |
| 2026-05-06 13:48 | 39.16312 | -19.26122 | 32209 ft | 441 kts | 263° |
| 2026-05-06 13:49 | 39.14662 | -19.33714 | 32205 ft | 441 kts | 263° |
| 2026-05-06 13:49 | 39.13002 | -19.41323 | 32206 ft | 441 kts | 263° |
| 2026-05-06 13:50 | 39.11338 | -19.48921 | 32192 ft | 441 kts | 263° |
| 2026-05-06 13:50 | 39.09663 | -19.56537 | 32210 ft | 440 kts | 262° |
| 2026-05-06 13:51 | 39.07996 | -19.64096 | 32205 ft | 440 kts | 262° |
| 2026-05-06 13:51 | 39.06321 | -19.71667 | 32213 ft | 440 kts | 262° |
| 2026-05-06 13:52 | 39.04640 | -19.79240 | 32207 ft | 440 kts | 262° |
| 2026-05-06 13:52 | 39.02958 | -19.86785 | 32212 ft | 440 kts | 262° |
| 2026-05-06 13:53 | 39.01265 | -19.94359 | 32209 ft | 439 kts | 262° |
| 2026-05-06 13:53 | 38.99589 | -20.01890 | 32208 ft | 438 kts | 264° |
| 2026-05-06 13:54 | 38.98343 | -20.09508 | 32212 ft | 439 kts | 268° |
| 2026-05-06 13:54 | 38.97270 | -20.17310 | 32208 ft | 442 kts | 267° |
| 2026-05-06 13:55 | 38.96139 | -20.25057 | 32218 ft | 441 kts | 266° |
| 2026-05-06 13:55 | 38.94957 | -20.32755 | 32213 ft | 441 kts | 266° |
| 2026-05-06 13:56 | 38.93749 | -20.40469 | 32218 ft | 441 kts | 266° |
| 2026-05-06 13:56 | 38.92533 | -20.48191 | 32194 ft | 441 kts | 265° |
| 2026-05-06 13:57 | 38.91309 | -20.55945 | 32219 ft | 441 kts | 265° |
| 2026-05-06 13:57 | 38.90093 | -20.63628 | 32224 ft | 441 kts | 265° |
| 2026-05-06 13:58 | 38.88863 | -20.71370 | 32222 ft | 441 kts | 265° |
| 2026-05-06 13:58 | 38.87633 | -20.79073 | 32222 ft | 441 kts | 265° |
| 2026-05-06 13:59 | 38.86396 | -20.86782 | 32222 ft | 441 kts | 265° |
| 2026-05-06 13:59 | 38.85158 | -20.94464 | 32225 ft | 440 kts | 265° |
| 2026-05-06 14:00 | 38.83912 | -21.02159 | 32227 ft | 440 kts | 265° |
| 2026-05-06 14:00 | 38.82664 | -21.09838 | 32228 ft | 440 kts | 265° |
| 2026-05-06 14:01 | 38.81412 | -21.17504 | 32222 ft | 440 kts | 264° |
| 2026-05-06 14:01 | 38.80154 | -21.25176 | 32225 ft | 440 kts | 264° |
| 2026-05-06 14:02 | 38.78891 | -21.32842 | 32230 ft | 440 kts | 264° |
| 2026-05-06 14:02 | 38.77626 | -21.40494 | 32230 ft | 440 kts | 264° |
| 2026-05-06 14:03 | 38.76354 | -21.48148 | 32215 ft | 440 kts | 264° |
| 2026-05-06 14:03 | 38.75074 | -21.55820 | 32230 ft | 439 kts | 264° |
| 2026-05-06 14:04 | 38.73792 | -21.63475 | 32227 ft | 439 kts | 264° |
| 2026-05-06 14:04 | 38.72509 | -21.71099 | 32230 ft | 439 kts | 264° |
| 2026-05-06 14:05 | 38.71220 | -21.78729 | 32233 ft | 439 kts | 264° |
| 2026-05-06 14:05 | 38.69925 | -21.86365 | 32234 ft | 438 kts | 264° |
| 2026-05-06 14:06 | 38.68630 | -21.93958 | 32234 ft | 438 kts | 264° |
| 2026-05-06 14:06 | 38.67328 | -22.01567 | 32236 ft | 438 kts | 264° |
| 2026-05-06 14:07 | 38.66021 | -22.09177 | 32235 ft | 438 kts | 264° |
| 2026-05-06 14:07 | 38.64709 | -22.16784 | 32235 ft | 438 kts | 263° |
| 2026-05-06 14:08 | 38.63387 | -22.24411 | 32235 ft | 438 kts | 263° |
| 2026-05-06 14:08 | 38.62070 | -22.31986 | 32236 ft | 438 kts | 263° |
| 2026-05-06 14:09 | 38.60741 | -22.39594 | 32237 ft | 438 kts | 263° |
| 2026-05-06 14:09 | 38.59404 | -22.47219 | 32243 ft | 438 kts | 263° |
| 2026-05-06 14:10 | 38.58069 | -22.54797 | 32247 ft | 438 kts | 263° |
| 2026-05-06 14:10 | 38.56734 | -22.62347 | 32238 ft | 438 kts | 263° |
| 2026-05-06 14:11 | 38.55391 | -22.69915 | 32245 ft | 438 kts | 263° |
| 2026-05-06 14:11 | 38.54042 | -22.77487 | 32245 ft | 438 kts | 263° |
| 2026-05-06 14:12 | 38.52682 | -22.85085 | 32244 ft | 437 kts | 263° |
| 2026-05-06 14:12 | 38.51331 | -22.92608 | 32246 ft | 437 kts | 263° |
| 2026-05-06 14:13 | 38.49964 | -23.00186 | 32254 ft | 437 kts | 263° |
| 2026-05-06 14:13 | 38.48597 | -23.07736 | 32249 ft | 437 kts | 263° |
| 2026-05-06 14:14 | 38.47229 | -23.15262 | 32245 ft | 437 kts | 262° |
| 2026-05-06 14:14 | 38.45850 | -23.22819 | 32245 ft | 437 kts | 262° |
| 2026-05-06 14:15 | 38.44466 | -23.30372 | 32250 ft | 437 kts | 262° |
| 2026-05-06 14:15 | 38.43083 | -23.37892 | 32247 ft | 437 kts | 262° |
| 2026-05-06 14:16 | 38.41692 | -23.45430 | 32240 ft | 437 kts | 262° |
| 2026-05-06 14:16 | 38.40292 | -23.52984 | 32249 ft | 436 kts | 262° |
| 2026-05-06 14:17 | 38.38895 | -23.60493 | 32246 ft | 436 kts | 262° |
| 2026-05-06 14:17 | 38.37494 | -23.67993 | 32250 ft | 436 kts | 262° |
| 2026-05-06 14:18 | 38.36087 | -23.75502 | 32233 ft | 436 kts | 261° |
| 2026-05-06 14:18 | 38.34670 | -23.83034 | 32250 ft | 436 kts | 261° |
| 2026-05-06 14:19 | 38.33256 | -23.90516 | 32256 ft | 436 kts | 261° |
| 2026-05-06 14:19 | 38.31830 | -23.98040 | 32250 ft | 436 kts | 261° |
| 2026-05-06 14:20 | 38.30404 | -24.05533 | 32253 ft | 436 kts | 261° |
| 2026-05-06 14:20 | 38.28967 | -24.13056 | 32256 ft | 436 kts | 261° |
| 2026-05-06 14:21 | 38.27533 | -24.20533 | 32253 ft | 436 kts | 261° |
| 2026-05-06 14:21 | 38.26093 | -24.28020 | 32257 ft | 436 kts | 261° |
| 2026-05-06 14:22 | 38.24643 | -24.35525 | 32258 ft | 436 kts | 261° |
| 2026-05-06 14:22 | 38.23194 | -24.43002 | 32256 ft | 437 kts | 261° |
| 2026-05-06 14:23 | 38.21742 | -24.50461 | 32258 ft | 437 kts | 261° |
| 2026-05-06 14:23 | 38.20274 | -24.57980 | 32259 ft | 437 kts | 261° |
| 2026-05-06 14:24 | 38.18805 | -24.65474 | 32261 ft | 437 kts | 261° |
| 2026-05-06 14:24 | 38.17343 | -24.72908 | 32254 ft | 437 kts | 260° |
| 2026-05-06 14:25 | 38.15866 | -24.80386 | 32261 ft | 436 kts | 260° |
| 2026-05-06 14:25 | 38.14384 | -24.87866 | 32260 ft | 436 kts | 260° |
| 2026-05-06 14:26 | 38.12898 | -24.95339 | 32257 ft | 436 kts | 260° |
| 2026-05-06 14:26 | 38.11410 | -25.02794 | 32239 ft | 436 kts | 260° |
| 2026-05-06 14:27 | 38.09918 | -25.10243 | 32262 ft | 436 kts | 260° |
| 2026-05-06 14:27 | 38.08422 | -25.17688 | 32259 ft | 437 kts | 260° |
| 2026-05-06 14:28 | 38.06915 | -25.25160 | 32255 ft | 437 kts | 260° |
| 2026-05-06 14:28 | 38.05406 | -25.32612 | 32261 ft | 436 kts | 260° |
| 2026-05-06 14:29 | 38.03889 | -25.40080 | 32260 ft | 437 kts | 260° |
| 2026-05-06 14:29 | 38.02377 | -25.47495 | 32260 ft | 437 kts | 259° |
| 2026-05-06 14:30 | 38.01108 | -25.53703 | 32259 ft | 436 kts | 259° |
| 2026-05-06 14:30 | 37.99327 | -25.62377 | 32260 ft | 436 kts | 259° |
| 2026-05-06 14:31 | 37.98046 | -25.68598 | 32260 ft | 436 kts | 259° |
| 2026-05-06 14:31 | 37.96515 | -25.76008 | 32262 ft | 435 kts | 259° |
| 2026-05-06 14:32 | 37.94979 | -25.83418 | 32263 ft | 435 kts | 259° |
| 2026-05-06 14:32 | 37.93437 | -25.90832 | 32262 ft | 435 kts | 259° |
| 2026-05-06 14:33 | 37.91899 | -25.98198 | 32262 ft | 435 kts | 259° |
| 2026-05-06 14:33 | 37.90347 | -26.05607 | 32269 ft | 434 kts | 259° |
| 2026-05-06 14:34 | 37.88801 | -26.12965 | 32263 ft | 434 kts | 259° |
| 2026-05-06 14:34 | 37.87244 | -26.20350 | 32268 ft | 434 kts | 259° |
| 2026-05-06 14:35 | 37.85688 | -26.27705 | 32261 ft | 434 kts | 259° |
| 2026-05-06 14:35 | 37.84117 | -26.35104 | 32265 ft | 434 kts | 259° |
| 2026-05-06 14:36 | 37.82559 | -26.42417 | 32268 ft | 433 kts | 259° |
| 2026-05-06 14:36 | 37.80988 | -26.49769 | 32268 ft | 434 kts | 259° |
| 2026-05-06 14:37 | 37.79404 | -26.57156 | 32251 ft | 434 kts | 259° |
| 2026-05-06 14:37 | 37.77823 | -26.64502 | 32268 ft | 434 kts | 258° |
| 2026-05-06 14:38 | 37.76235 | -26.71857 | 32270 ft | 434 kts | 258° |
| 2026-05-06 14:38 | 37.74648 | -26.79186 | 32271 ft | 434 kts | 258° |
| 2026-05-06 14:39 | 37.73053 | -26.86527 | 32268 ft | 434 kts | 258° |
| 2026-05-06 14:39 | 37.71450 | -26.93879 | 32270 ft | 434 kts | 258° |
| 2026-05-06 14:40 | 37.69839 | -27.01243 | 32271 ft | 434 kts | 258° |
| 2026-05-06 14:40 | 37.68232 | -27.08568 | 32271 ft | 434 kts | 258° |
| 2026-05-06 14:41 | 37.66622 | -27.15880 | 32271 ft | 434 kts | 258° |
| 2026-05-06 14:41 | 37.65003 | -27.23210 | 32270 ft | 433 kts | 258° |
| 2026-05-06 14:42 | 37.63387 | -27.30506 | 32271 ft | 433 kts | 258° |
| 2026-05-06 14:42 | 37.61767 | -27.37794 | 32270 ft | 433 kts | 258° |
| 2026-05-06 14:43 | 37.60141 | -27.45084 | 32274 ft | 433 kts | 258° |
| 2026-05-06 14:43 | 37.58499 | -27.52426 | 32267 ft | 433 kts | 258° |
| 2026-05-06 14:44 | 37.56868 | -27.59693 | 32268 ft | 433 kts | 258° |
| 2026-05-06 14:45 | 37.54400 | -27.70645 | 32267 ft | 433 kts | 258° |
| 2026-05-06 14:45 | 37.52748 | -27.77949 | 32263 ft | 433 kts | 258° |
| 2026-05-06 14:46 | 37.51090 | -27.85254 | 32270 ft | 433 kts | 258° |
| 2026-05-06 14:46 | 37.49432 | -27.92533 | 32274 ft | 433 kts | 258° |
| 2026-05-06 14:47 | 37.47771 | -27.99809 | 32269 ft | 433 kts | 258° |
| 2026-05-06 14:47 | 37.46105 | -28.07080 | 32271 ft | 433 kts | 258° |
| 2026-05-06 14:48 | 37.44435 | -28.14346 | 32284 ft | 433 kts | 258° |
| 2026-05-06 14:48 | 37.42763 | -28.21602 | 32285 ft | 433 kts | 258° |
| 2026-05-06 14:49 | 37.41087 | -28.28848 | 32271 ft | 433 kts | 258° |
| 2026-05-06 14:49 | 37.39406 | -28.36099 | 32270 ft | 433 kts | 258° |
| 2026-05-06 14:50 | 37.37714 | -28.43370 | 32277 ft | 433 kts | 258° |
| 2026-05-06 14:50 | 37.36020 | -28.50629 | 32270 ft | 433 kts | 258° |
| 2026-05-06 14:51 | 37.34326 | -28.57868 | 32278 ft | 433 kts | 258° |
| 2026-05-06 14:51 | 37.32630 | -28.65088 | 32278 ft | 433 kts | 258° |
| 2026-05-06 14:52 | 37.30929 | -28.72310 | 32275 ft | 432 kts | 258° |
| 2026-05-06 14:52 | 37.29222 | -28.79536 | 32267 ft | 431 kts | 258° |
| 2026-05-06 14:53 | 37.27514 | -28.86746 | 32278 ft | 431 kts | 258° |
| 2026-05-06 14:53 | 37.25804 | -28.93940 | 32283 ft | 431 kts | 258° |
| 2026-05-06 14:54 | 37.24088 | -29.01138 | 32277 ft | 431 kts | 258° |
| 2026-05-06 14:54 | 37.22359 | -29.08372 | 32277 ft | 431 kts | 258° |
| 2026-05-06 14:55 | 37.20630 | -29.15582 | 32277 ft | 431 kts | 258° |
| 2026-05-06 14:55 | 37.18902 | -29.22766 | 32277 ft | 431 kts | 258° |
| 2026-05-06 14:56 | 37.17172 | -29.29938 | 32278 ft | 431 kts | 258° |
| 2026-05-06 14:56 | 37.15433 | -29.37125 | 32277 ft | 431 kts | 258° |
| 2026-05-06 14:57 | 37.13690 | -29.44308 | 32278 ft | 431 kts | 258° |
| 2026-05-06 14:57 | 37.11934 | -29.51520 | 32282 ft | 431 kts | 258° |